Time;durP1;ratioP1;P1;durP2;ratioP2;P2;SDS_P1;SDS_P2;PMS_P1;PMS_P2;Temp;Humidity;BMP_temperature;BMP_pressure;BME280_temperature;BME280_humidity;BME280_pressure;Samples;Min_cycle;Max_cycle;Signal;HPM_P1;HPM_P2
2022/08/27 00:01:15;;;;;;;12.10;6.12;;;;;;;18.33;73.14;98950.59;1630744;88;20990;-68
2022/08/27 00:03:43;;;;;;;9.63;5.87;;;;;;;18.31;73.24;98948.09;1663141;86;20998;-68
2022/08/27 00:06:17;;;;;;;11.20;6.08;;;;;;;18.31;72.79;98947.25;1663027;86;21013;-69
2022/08/27 00:08:44;;;;;;;13.25;5.55;;;;;;;18.28;72.64;98944.39;1630885;88;21973;-68
2022/08/27 00:11:12;;;;;;;9.73;6.00;;;;;;;18.26;72.68;98948.94;1663116;86;20978;-68
2022/08/27 00:13:40;;;;;;;10.13;5.95;;;;;;;18.25;72.97;98952.52;1663083;86;21013;-70
2022/08/27 00:16:08;;;;;;;10.65;5.67;;;;;;;18.23;72.94;98950.49;1663039;86;21085;-70
2022/08/27 00:18:35;;;;;;;11.97;6.30;;;;;;;18.22;72.80;98947.50;1663039;86;20982;-68
2022/08/27 00:21:02;;;;;;;12.45;5.53;;;;;;;18.22;72.36;98948.34;1663000;86;21142;-68
2022/08/27 00:23:30;;;;;;;12.60;6.17;;;;;;;18.22;72.29;98946.19;1662882;86;21021;-68
2022/08/27 00:25:58;;;;;;;11.65;6.12;;;;;;;18.25;71.94;98942.00;1662985;86;21081;-68
2022/08/27 00:28:26;;;;;;;9.90;5.28;;;;;;;18.28;71.14;98944.39;1663109;86;21061;-68
2022/08/27 00:30:54;;;;;;;11.50;5.65;;;;;;;18.31;70.87;98944.14;1663114;86;21044;-68
2022/08/27 00:33:22;;;;;;;11.85;5.60;;;;;;;18.32;68.73;98947.61;1663014;86;21252;-68
2022/08/27 00:35:49;;;;;;;9.48;5.78;;;;;;;18.34;67.62;98941.74;1663025;86;21089;-68
2022/08/27 00:38:17;;;;;;;10.82;5.22;;;;;;;18.36;67.40;98946.41;1663004;86;21026;-68
2022/08/27 00:40:44;;;;;;;12.82;5.20;;;;;;;18.36;66.87;98939.34;1663099;86;20985;-68
2022/08/27 00:43:10;;;;;;;9.73;5.53;;;;;;;18.37;65.99;98939.70;1662961;86;20990;-68
2022/08/27 00:45:42;;;;;;;14.25;5.80;;;;;;;18.38;65.72;98941.37;1663116;86;21847;-68
2022/08/27 00:48:12;;;;;;;11.97;5.30;;;;;;;18.38;65.42;98932.64;1663387;86;21084;-68
2022/08/27 00:50:48;;;;;;;9.95;4.80;;;;;;;18.39;64.89;98935.59;1662984;86;21038;-68
2022/08/27 00:53:22;;;;;;;12.05;5.30;;;;;;;18.39;65.92;98935.12;1663032;86;21470;-68
2022/08/27 00:55:54;;;;;;;9.00;5.12;;;;;;;18.39;66.95;98930.33;1630732;88;21066;-68
2022/08/27 00:58:27;;;;;;;9.10;5.40;;;;;;;18.37;67.27;98929.65;1663459;86;21206;-68
2022/08/27 01:00:55;;;;;;;11.03;5.80;;;;;;;18.34;68.40;98925.47;1663063;86;20982;-68
2022/08/27 01:03:21;;;;;;;14.20;5.83;;;;;;;18.31;69.28;98926.19;1663301;86;21486;-68
2022/08/27 01:05:48;;;;;;;9.38;5.70;;;;;;;18.29;70.06;98926.80;1663087;86;21010;-68
2022/08/27 01:08:22;;;;;;;8.90;5.12;;;;;;;18.28;70.41;98930.39;1663075;86;21572;-68
2022/08/27 01:10:50;;;;;;;13.83;5.60;;;;;;;18.25;70.73;98929.67;1663055;86;21765;-69
2022/08/27 01:13:21;;;;;;;9.90;5.45;;;;;;;18.24;70.52;98930.62;1663018;86;20986;-68
2022/08/27 01:15:47;;;;;;;7.47;4.70;;;;;;;18.24;69.79;98931.11;1662997;86;21017;-68
2022/08/27 01:18:14;;;;;;;8.45;5.17;;;;;;;18.25;69.02;98940.20;1658668;86;20986;-68
2022/08/27 01:21:11;;;;;;;11.08;4.67;;;;;;;18.26;67.74;98925.24;1662996;86;20994;-68
2022/08/27 01:23:49;;;;;;;10.68;4.85;;;;;;;18.28;67.20;98929.91;1658941;86;21152;-68
2022/08/27 01:26:16;;;;;;;9.43;4.75;;;;;;;18.27;66.75;98926.92;1663170;86;21053;-68
2022/08/27 01:28:42;;;;;;;8.38;4.70;;;;;;;18.28;65.91;98923.80;1663066;86;20990;-68
2022/08/27 01:31:10;;;;;;;7.67;5.10;;;;;;;18.27;65.94;98924.28;1635085;86;21524;-68
2022/08/27 01:33:37;;;;;;;8.23;4.85;;;;;;;18.25;65.89;98924.89;1663149;86;21526;-68
2022/08/27 01:36:03;;;;;;;10.55;5.37;;;;;;;18.26;66.25;98926.56;1662949;86;21150;-68
2022/08/27 01:38:30;;;;;;;6.83;5.30;;;;;;;18.24;66.67;98926.69;1630735;88;21434;-68
2022/08/27 01:40:58;;;;;;;11.38;5.58;;;;;;;18.22;67.38;98930.39;1662972;86;21021;-68
2022/08/27 01:43:25;;;;;;;11.50;4.87;;;;;;;18.21;68.12;98924.30;1630661;88;21517;-68
2022/08/27 01:45:52;;;;;;;11.05;4.97;;;;;;;18.19;67.65;98925.38;1630674;88;21013;-68
2022/08/27 01:48:21;;;;;;;11.05;5.17;;;;;;;18.17;67.89;98928.16;1663080;86;21502;-68
2022/08/27 01:50:48;;;;;;;9.75;5.67;;;;;;;18.15;68.47;98923.98;1662960;86;21466;-68
2022/08/27 01:53:19;;;;;;;10.80;5.25;;;;;;;18.13;68.28;98933.79;1663051;86;20993;-68
2022/08/27 01:55:46;;;;;;;10.78;5.10;;;;;;;18.11;68.18;98922.07;1662975;86;21101;-68
2022/08/27 01:58:13;;;;;;;13.55;4.97;;;;;;;18.09;68.93;98921.83;1663349;86;21014;-68
2022/08/27 02:00:42;;;;;;;9.65;5.87;;;;;;;18.06;68.43;98920.28;1663018;86;21483;-68
2022/08/27 02:03:10;;;;;;;8.70;5.00;;;;;;;18.05;68.12;98925.67;1662857;86;21132;-68
2022/08/27 02:05:38;;;;;;;6.12;4.97;;;;;;;18.02;68.23;98918.84;1635001;86;21053;-68
2022/08/27 02:08:06;;;;;;;10.18;5.00;;;;;;;18.01;68.43;98917.17;1662897;86;21100;-68
2022/08/27 02:10:36;;;;;;;8.08;4.92;;;;;;;17.99;68.39;98914.31;1630808;87;21486;-68
2022/08/27 02:13:03;;;;;;;10.18;5.12;;;;;;;17.98;67.83;98920.56;1630641;88;21291;-68
2022/08/27 02:15:33;;;;;;;14.73;5.85;;;;;;;17.95;68.20;98919.02;1630614;88;21022;-68
2022/08/27 02:18:00;;;;;;;9.08;5.55;;;;;;;17.93;68.45;98919.61;1630649;88;21030;-68
2022/08/27 02:20:27;;;;;;;15.28;5.15;;;;;;;17.89;68.26;98918.17;1662926;86;21030;-68
2022/08/27 02:22:55;;;;;;;11.88;5.03;;;;;;;17.87;67.89;98929.30;1663007;86;21017;-68
2022/08/27 02:25:23;;;;;;;10.60;5.15;;;;;;;17.83;67.88;98926.55;1552460;91;20991;-68
2022/08/27 02:27:50;;;;;;;7.70;5.33;;;;;;;17.78;67.48;98925.63;1564038;91;21081;-69
2022/08/27 02:30:20;;;;;;;9.90;5.22;;;;;;;17.73;67.51;98925.14;1603352;89;21073;-68
2022/08/27 02:32:48;;;;;;;8.20;4.97;;;;;;;17.70;67.14;98929.33;1603431;89;21076;-68
2022/08/27 02:35:16;;;;;;;9.03;5.45;;;;;;;17.66;66.87;98928.38;1603339;89;21052;-68
2022/08/27 02:37:44;;;;;;;8.33;4.80;;;;;;;17.60;66.87;98932.28;1603362;89;21115;-68
2022/08/27 02:40:15;;;;;;;10.43;5.05;;;;;;;17.57;66.37;98935.17;1603566;89;20994;-68
2022/08/27 02:42:40;;;;;;;10.63;5.00;;;;;;;17.54;66.26;98935.41;1603171;89;21470;-68
2022/08/27 02:45:08;;;;;;;6.60;5.33;;;;;;;17.51;66.29;98932.54;1603396;89;21042;-68
2022/08/27 02:47:35;;;;;;;12.15;5.22;;;;;;;17.49;66.29;98933.14;1603335;89;21050;-68
2022/08/27 02:50:02;;;;;;;12.93;5.60;;;;;;;17.48;66.05;98933.25;1603278;89;22079;-68
2022/08/27 02:52:29;;;;;;;8.20;4.65;;;;;;;17.46;66.31;98932.05;1603256;89;21096;-68
2022/08/27 02:54:57;;;;;;;14.35;5.15;;;;;;;17.46;65.92;98929.43;1603381;89;21085;-69
2022/08/27 02:57:23;;;;;;;10.72;5.10;;;;;;;17.47;66.37;98927.63;1656049;86;21033;-68
2022/08/27 02:59:50;;;;;;;7.33;5.00;;;;;;;17.45;66.44;98921.18;1662918;86;21025;-68
2022/08/27 03:02:18;;;;;;;8.45;5.53;;;;;;;17.44;66.57;98917.35;1662874;86;21159;-68
2022/08/27 03:04:45;;;;;;;7.33;5.28;;;;;;;17.43;66.66;98915.20;1662858;86;20993;-68
2022/08/27 03:07:12;;;;;;;8.15;4.72;;;;;;;17.43;66.68;98915.68;1663004;86;21014;-68
2022/08/27 03:09:39;;;;;;;7.67;5.22;;;;;;;17.42;66.67;98915.32;1663060;86;21501;-68
2022/08/27 03:12:08;;;;;;;8.10;5.30;;;;;;;17.42;67.14;98912.69;1662971;86;21435;-68
2022/08/27 03:14:34;;;;;;;8.03;5.25;;;;;;;17.42;67.15;98912.22;1662913;86;21181;-68
2022/08/27 03:18:17;;;;;;;13.58;5.95;;;;;;;17.43;67.23;98911.26;1662956;86;20974;-68
2022/08/27 03:19:30;;;;;;;10.90;5.20;;;;;;;17.46;67.07;98918.91;1626915;88;21045;-68
2022/08/27 03:21:57;;;;;;;9.95;5.28;;;;;;;17.49;66.69;98916.52;1630639;88;21062;-68
2022/08/27 03:24:23;;;;;;;8.98;4.85;;;;;;;17.52;66.43;98918.92;1630890;88;21040;-68
2022/08/27 03:26:50;;;;;;;10.48;5.55;;;;;;;17.55;66.23;98918.68;1630907;88;21928;-68
2022/08/27 03:29:16;;;;;;;8.63;5.22;;;;;;;17.61;65.83;98923.44;1630673;88;21033;-68
2022/08/27 03:31:43;;;;;;;10.23;5.40;;;;;;;17.67;65.89;98922.16;1630563;88;21031;-68
2022/08/27 03:34:10;;;;;;;8.80;5.00;;;;;;;17.71;65.58;98931.00;1630773;87;21503;-68
2022/08/27 03:36:37;;;;;;;10.53;5.35;;;;;;;17.77;65.41;98929.69;1630583;87;21098;-69
2022/08/27 03:39:03;;;;;;;9.03;5.50;;;;;;;17.80;65.34;98934.20;1630680;88;21164;-68
2022/08/27 03:41:30;;;;;;;8.28;5.20;;;;;;;17.84;64.87;98934.80;1662928;86;21447;-68
2022/08/27 03:43:58;;;;;;;8.53;5.33;;;;;;;17.86;64.80;98928.94;1623815;88;21090;-68
2022/08/27 03:46:29;;;;;;;9.90;5.40;;;;;;;17.88;64.83;98930.97;1623398;88;21085;-68
2022/08/27 03:48:55;;;;;;;10.25;5.50;;;;;;;17.88;64.81;98932.28;1623472;87;20998;-68
2022/08/27 03:51:22;;;;;;;9.90;6.10;;;;;;;17.89;64.32;98936.11;1623456;88;21447;-68
2022/08/27 03:53:49;;;;;;;7.87;5.42;;;;;;;17.91;64.22;98935.99;1623401;88;20987;-68
2022/08/27 03:56:15;;;;;;;7.42;4.70;;;;;;;17.94;64.06;98932.28;1623612;88;21628;-68
2022/08/27 03:58:42;;;;;;;11.08;5.22;;;;;;;17.95;64.29;98926.91;1623531;88;21010;-68
2022/08/27 04:01:09;;;;;;;9.10;5.08;;;;;;;17.98;64.32;98930.61;1623592;87;21022;-68
2022/08/27 04:03:35;;;;;;;11.80;5.62;;;;;;;18.00;64.30;98933.92;1623718;88;22066;-68
2022/08/27 04:06:02;;;;;;;8.88;5.25;;;;;;;18.03;64.22;98932.84;1623582;87;20986;-68
2022/08/27 04:08:29;;;;;;;10.80;5.70;;;;;;;18.06;64.20;98932.13;1623546;88;21034;-68
2022/08/27 04:10:56;;;;;;;7.72;5.72;;;;;;;18.11;64.32;98939.17;1623606;88;21071;-68
2022/08/27 04:13:22;;;;;;;15.10;6.50;;;;;;;18.17;64.28;98929.48;1623675;87;21019;-68
2022/08/27 04:15:51;;;;;;;14.13;6.50;;;;;;;18.22;64.27;98930.39;1623638;87;21090;-68
2022/08/27 04:18:18;;;;;;;9.70;6.42;;;;;;;18.28;64.47;98932.54;1623468;88;21034;-68
2022/08/27 04:20:46;;;;;;;19.20;7.70;;;;;;;18.33;64.72;98930.38;1623622;88;21058;-68
2022/08/27 04:23:12;;;;;;;17.30;8.25;;;;;;;18.38;65.79;98927.37;1623512;88;21046;-68
2022/08/27 04:25:41;;;;;;;11.45;6.87;;;;;;;18.43;66.24;98927.33;1623689;87;21089;-68
2022/08/27 04:28:08;;;;;;;9.95;6.40;;;;;;;18.47;66.71;98923.97;1623583;88;21170;-68
2022/08/27 04:30:41;;;;;;;7.62;5.62;;;;;;;18.52;66.94;98924.43;1623745;88;21419;-68
2022/08/27 04:33:08;;;;;;;13.58;5.58;;;;;;;18.56;66.42;98920.11;1621336;88;21026;-68
2022/08/27 04:35:35;;;;;;;7.87;5.50;;;;;;;18.62;65.86;98915.30;1624032;87;20994;-68
2022/08/27 04:38:03;;;;;;;11.45;5.87;;;;;;;18.66;65.41;98910.97;1623643;88;21466;-68
2022/08/27 04:43:15;;;;;;;10.45;6.10;;;;;;;18.77;64.98;98909.61;1627042;87;20979;-69
2022/08/27 04:45:45;;;;;;;8.20;5.58;;;;;;;18.86;64.54;98910.14;1630921;88;21541;-68
2022/08/27 04:48:12;;;;;;;9.48;5.70;;;;;;;19.02;63.64;98910.98;1662913;86;20985;-68
2022/08/27 04:50:44;;;;;;;8.83;6.30;;;;;;;19.25;63.61;98907.23;1662947;86;21518;-68
2022/08/27 04:53:12;;;;;;;13.15;6.10;;;;;;;19.61;61.89;98910.30;1663154;86;21162;-68
2022/08/27 04:55:45;;;;;;;11.70;5.70;;;;;;;20.00;60.89;98906.44;1663008;86;21081;-68
2022/08/27 04:58:12;;;;;;;12.13;5.62;;;;;;;20.30;59.63;98905.02;1627394;88;21029;-68
2022/08/27 05:00:47;;;;;;;14.73;5.90;;;;;;;20.59;58.77;98907.18;1630723;88;21546;-68
2022/08/27 05:03:18;;;;;;;14.60;6.35;;;;;;;20.79;58.35;98905.34;1630667;87;20990;-68
2022/08/27 05:05:48;;;;;;;8.68;5.28;;;;;;;20.93;57.55;98908.05;1614443;89;21922;-67
2022/08/27 05:08:14;;;;;;;14.15;5.60;;;;;;;21.03;57.50;98906.20;1665314;86;20970;-68
2022/08/27 05:10:49;;;;;;;10.80;5.75;;;;;;;21.07;56.80;98915.53;1665324;86;21081;-68
2022/08/27 05:13:18;;;;;;;9.48;5.97;;;;;;;21.08;56.93;98905.30;1665502;86;21870;-68
2022/08/27 05:15:45;;;;;;;6.37;4.83;;;;;;;21.11;55.97;98909.47;1665375;86;20985;-67
2022/08/27 05:18:12;;;;;;;7.17;5.70;;;;;;;21.10;56.55;98907.80;1630718;88;21503;-68
2022/08/27 05:20:44;;;;;;;13.60;6.80;;;;;;;21.09;56.03;98906.13;1630642;88;21070;-68
2022/08/27 05:23:12;;;;;;;17.45;7.12;;;;;;;21.07;56.11;98906.27;1630833;88;21597;-68
2022/08/27 05:25:41;;;;;;;12.78;5.70;;;;;;;21.03;55.96;98901.41;1630633;87;21501;-68
2022/08/27 05:28:09;;;;;;;8.58;5.30;;;;;;;21.02;55.67;98900.58;1630622;87;21030;-67
2022/08/27 05:30:40;;;;;;;7.62;5.50;;;;;;;21.04;55.36;98895.98;1630707;88;21835;-68
2022/08/27 05:33:07;;;;;;;7.80;5.45;;;;;;;21.05;56.37;98898.97;1630748;88;21117;-68
2022/08/27 05:35:41;;;;;;;11.30;5.58;;;;;;;21.09;57.02;98900.84;1630584;88;21001;-68
2022/08/27 05:38:09;;;;;;;11.38;6.33;;;;;;;21.14;57.08;98891.52;1630669;88;38713;-69
2022/08/27 05:40:37;;;;;;;10.13;6.05;;;;;;;21.20;57.25;98892.75;1630624;87;21093;-69
2022/08/27 05:43:06;;;;;;;10.50;5.58;;;;;;;21.29;57.20;98897.19;1630483;87;21174;-69
2022/08/27 05:45:35;;;;;;;12.28;5.97;;;;;;;21.34;56.52;98898.08;1630644;88;21022;-69
2022/08/27 05:48:02;;;;;;;12.30;5.80;;;;;;;21.36;56.55;98894.80;1630560;87;21018;-69
2022/08/27 05:50:30;;;;;;;10.15;5.47;;;;;;;21.39;56.50;98894.00;1630654;88;21526;-69
2022/08/27 05:52:56;;;;;;;11.60;6.25;;;;;;;21.44;56.83;98893.56;1630562;88;21077;-69
2022/08/27 05:55:23;;;;;;;13.58;5.08;;;;;;;21.47;56.33;98893.28;1630676;88;21174;-69
2022/08/27 05:57:49;;;;;;;14.15;6.50;;;;;;;21.48;56.35;98890.49;1630723;88;21546;-69
2022/08/27 06:03:01;;;;;;;10.88;5.25;;;;;;;21.61;56.81;98894.94;1630663;88;21032;-67
2022/08/27 06:05:28;;;;;;;11.70;4.95;;;;;;;21.70;56.68;98899.85;1630583;87;21046;-67
2022/08/27 06:07:55;;;;;;;8.00;5.45;;;;;;;21.77;56.20;98884.22;1630650;88;21136;-67
2022/08/27 06:10:22;;;;;;;13.20;5.40;;;;;;;21.89;55.34;98885.17;1632285;86;21022;-68
2022/08/27 06:13:02;;;;;;;12.88;5.83;;;;;;;22.03;54.83;98894.94;1644579;87;21469;-68
2022/08/27 06:15:28;;;;;;;13.22;5.70;;;;;;;22.17;54.53;98887.33;1616778;88;21049;-68
2022/08/27 06:17:55;;;;;;;7.45;4.85;;;;;;;22.35;54.07;98886.00;1644663;87;21079;-68
2022/08/27 06:20:22;;;;;;;7.55;4.50;;;;;;;22.56;53.58;98881.70;1644664;87;21177;-68
2022/08/27 06:22:49;;;;;;;8.03;4.75;;;;;;;22.79;53.01;98888.17;1658479;85;21568;-68
2022/08/27 06:25:16;;;;;;;11.25;4.83;;;;;;;23.07;52.07;98884.05;1672107;85;21005;-68
2022/08/27 06:27:42;;;;;;;9.83;5.33;;;;;;;23.33;50.64;98884.87;1671806;85;21461;-68
2022/08/27 06:30:11;;;;;;;10.65;5.00;;;;;;;23.59;50.42;98884.33;1671943;85;21021;-68
2022/08/27 06:32:37;;;;;;;12.60;9.38;;;;;;;23.85;49.83;98884.25;1671889;85;21864;-68
2022/08/27 06:35:05;;;;;;;9.83;4.67;;;;;;;24.11;49.96;98881.50;1671806;85;21474;-68
2022/08/27 06:37:32;;;;;;;5.72;3.65;;;;;;;24.39;50.07;98893.50;1671845;85;20981;-68
2022/08/27 06:39:59;;;;;;;8.00;3.08;;;;;;;24.66;44.88;98888.36;1671808;85;21017;-69
2022/08/27 06:42:25;;;;;;;7.58;3.10;;;;;;;24.83;45.27;98878.53;1671906;85;21057;-69
2022/08/27 06:44:53;;;;;;;9.83;3.17;;;;;;;25.00;44.65;98885.52;1671855;85;21287;-68
2022/08/27 06:47:20;;;;;;;4.45;3.05;;;;;;;25.14;43.30;98870.70;1671752;85;20982;-68
2022/08/27 06:49:46;;;;;;;4.03;3.27;;;;;;;25.20;43.56;98874.48;1671852;85;21069;-68
2022/08/27 06:52:14;;;;;;;10.55;3.72;;;;;;;25.21;42.92;98878.31;1671804;85;21022;-68
2022/08/27 06:54:40;;;;;;;7.60;3.27;;;;;;;25.18;42.77;98866.67;1671789;85;20950;-69
2022/08/27 06:57:06;;;;;;;11.53;3.30;;;;;;;;;;1671892;85;21116;-68
2022/08/27 06:59:33;;;;;;;11.78;3.60;;;;;;;25.00;41.98;98869.55;1671872;85;20966;-68
2022/08/27 07:02:00;;;;;;;6.55;3.85;;;;;;;24.88;42.97;98871.38;1671890;85;20965;-68
2022/08/27 07:04:28;;;;;;;11.05;3.42;;;;;;;24.84;43.03;98871.38;1671880;85;21508;-69
2022/08/27 07:06:55;;;;;;;5.80;3.27;;;;;;;24.79;43.90;98864.41;1671916;85;21060;-67
2022/08/27 07:09:23;;;;;;;6.87;3.15;;;;;;;24.78;44.57;98860.91;1671791;85;21980;-69
2022/08/27 07:11:50;;;;;;;7.05;3.25;;;;;;;24.83;44.51;98858.58;1673037;85;21434;-69
2022/08/27 07:14:16;;;;;;;4.08;3.55;;;;;;;24.86;44.94;98862.23;1675207;85;21162;-69
2022/08/27 07:16:43;;;;;;;8.50;3.58;;;;;;;24.82;43.92;98862.24;1675252;85;21014;-69
2022/08/27 07:19:10;;;;;;;8.23;3.92;;;;;;;24.77;43.96;98857.95;1675218;85;21481;-69
2022/08/27 07:21:37;;;;;;;7.20;3.60;;;;;;;24.71;44.28;98855.45;1675121;84;21485;-69
2022/08/27 07:24:05;;;;;;;7.00;3.58;;;;;;;24.65;43.83;98860.11;1675161;85;21152;-69
2022/08/27 07:26:34;;;;;;;7.75;3.50;;;;;;;24.59;44.13;98850.13;1675579;85;20961;-69
2022/08/27 07:29:01;;;;;;;6.28;4.00;;;;;;;24.55;44.13;98855.98;1675267;85;20997;-69
2022/08/27 07:31:28;;;;;;;4.97;3.85;;;;;;;24.52;43.36;98856.30;1675308;85;21508;-69
2022/08/27 07:33:54;;;;;;;5.47;3.37;;;;;;;24.47;42.95;98848.82;1675222;84;21106;-70
2022/08/27 07:36:21;;;;;;;7.22;3.37;;;;;;;24.48;43.67;98847.83;1675135;84;20985;-68
2022/08/27 07:38:48;;;;;;;4.67;3.52;;;;;;;24.54;43.19;98843.68;1675361;85;21086;-68
2022/08/27 07:41:15;;;;;;;7.10;3.80;;;;;;;24.63;43.97;98847.97;1675331;85;21048;-68
2022/08/27 07:46:27;;;;;;;4.75;3.20;;;;;;;24.87;44.18;98851.10;1648198;85;21167;-68
2022/08/27 07:48:56;;;;;;;6.97;3.37;;;;;;;25.02;43.35;98840.12;1675262;85;21028;-69
2022/08/27 07:51:25;;;;;;;13.78;3.62;;;;;;;25.19;43.91;98835.56;1675376;85;21029;-69
2022/08/27 07:53:53;;;;;;;6.83;3.37;;;;;;;25.33;43.08;98837.03;1675352;85;20997;-68
2022/08/27 07:56:20;;;;;;;10.63;4.15;;;;;;;25.48;42.43;98830.97;1675369;85;20961;-68
2022/08/27 07:58:46;;;;;;;12.78;3.10;;;;;;;25.59;42.47;98839.89;1675426;85;21837;-69
2022/08/27 08:01:13;;;;;;;4.35;2.80;;;;;;;25.70;42.52;98833.72;1675268;85;20981;-69
2022/08/27 08:03:40;;;;;;;5.60;3.10;;;;;;;25.83;41.46;98838.45;1675393;84;21173;-69
2022/08/27 08:06:10;;;;;;;12.20;3.25;;;;;;;25.93;41.87;98826.25;1675381;85;21033;-69
2022/08/27 08:08:38;;;;;;;9.23;3.45;;;;;;;26.05;39.49;98832.82;1675354;85;21081;-69
2022/08/27 08:11:08;;;;;;;5.58;3.20;;;;;;;26.17;37.45;98835.41;1675311;85;21820;-68
2022/08/27 08:13:36;;;;;;;6.55;3.05;;;;;;;26.22;35.08;98833.02;1663238;85;21057;-69
2022/08/27 08:16:06;;;;;;;8.50;3.02;;;;;;;26.26;35.61;98831.66;1662838;85;21620;-69
2022/08/27 08:18:33;;;;;;;5.78;3.40;;;;;;;26.31;35.76;98835.99;1663176;85;21498;-68
2022/08/27 08:21:02;;;;;;;7.12;4.08;;;;;;;26.41;36.73;98829.06;1662910;86;21010;-68
2022/08/27 08:23:28;;;;;;;9.80;4.22;;;;;;;26.51;35.33;98823.48;1641607;86;21550;-69
2022/08/27 08:25:56;;;;;;;6.95;3.75;;;;;;;26.54;35.68;98819.96;1662688;86;21045;-69
2022/08/27 08:28:23;;;;;;;3.80;3.33;;;;;;;26.52;34.88;98820.64;1662696;86;21014;-69
2022/08/27 08:30:51;;;;;;;6.55;3.62;;;;;;;26.50;34.87;98828.50;1663117;86;20997;-69
2022/08/27 08:33:17;;;;;;;5.28;3.05;;;;;;;26.47;34.97;98825.69;1641587;86;21049;-69
2022/08/27 08:35:44;;;;;;;4.80;3.55;;;;;;;26.47;35.63;98818.19;1662819;86;21106;-69
2022/08/27 08:38:10;;;;;;;10.32;3.70;;;;;;;26.51;36.32;98820.83;1662684;85;21461;-69
2022/08/27 08:40:43;;;;;;;6.47;3.37;;;;;;;26.59;36.80;98816.73;1662748;86;21033;-69
2022/08/27 08:43:42;;;;;;;9.65;3.25;;;;;;;26.67;35.79;98819.33;1662718;85;21087;-69
2022/08/27 08:46:18;;;;;;;9.55;3.08;;;;;;;26.72;35.22;98818.28;1663178;85;21061;-68
2022/08/27 08:48:47;;;;;;;9.35;3.83;;;;;;;26.77;35.47;98814.58;1660945;86;21165;-68
2022/08/27 08:51:31;;;;;;;9.15;3.50;;;;;;;26.84;35.68;98814.65;1662644;85;21014;-70
2022/08/27 08:54:11;;;;;;;5.45;3.25;;;;;;;26.90;35.93;98813.92;1660842;86;21029;-67
2022/08/27 08:57:06;;;;;;;9.98;3.58;;;;;;;26.88;33.89;98808.77;1662717;85;21513;-67
2022/08/27 08:59:37;;;;;;;8.43;3.55;;;;;;;26.83;33.79;98807.15;1662741;85;21498;-69
2022/08/27 09:02:06;;;;;;;10.18;3.30;;;;;;;26.79;34.97;98808.52;1662727;86;21243;-69
2022/08/27 09:04:33;;;;;;;7.58;3.55;;;;;;;26.85;35.08;98805.63;1662660;86;20975;-68
2022/08/27 09:07:22;;;;;;;7.95;3.37;;;;;;;26.96;34.41;98803.39;1662757;86;21501;-68
2022/08/27 09:10:15;;;;;;;8.55;3.30;;;;;;;27.04;34.79;98807.28;1662590;86;21498;-68
2022/08/27 09:12:42;;;;;;;;;;;;;;;27.10;34.46;98801.72;1665291;86;20975;-67
2022/08/27 09:15:16;;;;;;;9.90;3.70;;;;;;;27.20;34.14;98802.25;1663347;86;21132;-68
2022/08/27 09:17:43;;;;;;;11.00;3.22;;;;;;;27.28;33.43;98807.50;1663045;86;21470;-68
2022/08/27 09:20:12;;;;;;;7.70;3.80;;;;;;;27.37;33.98;98807.73;1662746;86;21062;-69
2022/08/27 09:23:07;;;;;;;9.58;3.12;;;;;;;27.50;35.03;98800.38;1661835;85;21037;-69
2022/08/27 09:25:37;;;;;;;8.93;3.58;;;;;;;27.62;34.79;98794.05;1662507;85;20973;-69
2022/08/27 09:31:11;;;;;;;13.28;4.03;;;;;;;27.89;33.96;98808.02;1662643;86;20906;-69
2022/08/27 09:33:39;;;;;;;16.23;4.30;;;;;;;27.99;33.12;98793.81;1641765;86;21033;-68
2022/08/27 09:36:09;;;;;;;9.28;4.08;;;;;;;28.06;32.37;98803.25;1662668;86;21601;-68
2022/08/27 09:38:36;;;;;;;15.50;4.05;;;;;;;28.11;32.46;98798.98;1662816;86;21605;-68
2022/08/27 09:41:10;;;;;;;14.78;3.67;;;;;;;28.19;32.59;98795.84;1662740;86;21131;-68
2022/08/27 09:43:42;;;;;;;17.65;4.37;;;;;;;28.26;32.01;98796.27;1662543;85;21529;-69
2022/08/27 09:46:21;;;;;;;11.45;3.80;;;;;;;28.31;31.68;98796.52;1662237;85;21069;-69
2022/08/27 09:48:48;;;;;;;9.18;4.22;;;;;;;28.36;32.62;98792.77;1662825;85;21069;-69
2022/08/27 09:51:26;;;;;;;9.80;4.28;;;;;;;28.45;32.84;98796.11;1662673;86;21580;-69
2022/08/27 09:53:57;;;;;;;14.80;4.58;;;;;;;28.55;33.53;98794.45;1662576;85;21141;-69
2022/08/27 09:56:30;;;;;;;11.20;3.98;;;;;;;28.63;33.55;98800.45;1663002;86;21132;-69
2022/08/27 09:59:22;;;;;;;10.40;4.22;;;;;;;28.67;33.53;98796.89;1662700;85;21070;-68
2022/08/27 10:01:53;;;;;;;;;;;;;;;28.73;32.90;98798.79;1665213;86;20986;-67
2022/08/27 10:04:39;;;;;;;15.65;4.47;;;;;;;28.75;32.54;98796.75;1662761;85;20429;-68
2022/08/27 10:07:20;;;;;;;11.68;4.47;;;;;;;28.79;32.34;98792.13;1662787;85;21228;-67
2022/08/27 10:09:59;;;;;;;23.00;5.80;;;;;;;28.90;33.32;98798.82;1663254;85;21010;-67
2022/08/27 10:12:52;;;;;;;30.05;6.65;;;;;;;29.01;32.18;98803.61;1660902;85;21038;-68
2022/08/27 10:15:19;;;;;;;22.52;5.20;;;;;;;29.13;31.96;98799.37;1663049;85;21050;-67
2022/08/27 10:18:09;;;;;;;21.37;4.83;;;;;;;29.32;30.89;98807.69;1641674;86;21103;-67
2022/08/27 10:21:12;;;;;;;28.23;5.53;;;;;;;29.41;31.25;98809.19;1652262;86;21384;-67
2022/08/27 10:24:04;;;;;;;22.40;5.45;;;;;;;29.53;30.38;98809.45;1659989;85;21009;-68
2022/08/27 10:26:46;;;;;;;18.73;4.42;;;;;;;29.74;31.03;98806.63;1662753;86;20977;-69
2022/08/27 10:29:37;;;;;;;23.27;5.62;;;;;;;29.95;31.06;98815.86;1659636;85;20989;-68
2022/08/27 10:32:31;;;;;;;28.42;5.85;;;;;;;30.05;30.20;98812.80;1640290;86;21022;-69
2022/08/27 10:35:21;;;;;;;20.25;4.83;;;;;;;30.06;30.49;98815.80;1662751;86;21284;-68
2022/08/27 10:38:17;;;;;;;24.07;5.25;;;;;;;30.01;31.37;98821.77;1662621;85;21042;-68
2022/08/27 10:41:12;;;;;;;16.10;4.80;;;;;;;29.97;30.67;98818.34;1662794;86;21444;-68
2022/08/27 10:43:59;;;;;;;25.23;5.67;;;;;;;30.01;31.46;98820.42;1659773;86;20993;-68
2022/08/27 10:47:04;;;;;;;30.37;6.28;;;;;;;30.11;31.25;98816.84;1662983;86;21528;-68
2022/08/27 10:50:04;;;;;;;25.50;6.08;;;;;;;30.24;31.18;98823.23;1662807;85;21289;-67
2022/08/27 10:53:03;;;;;;;29.65;6.00;;;;;;;30.27;30.23;98819.64;1662667;86;20982;-68
2022/08/27 10:55:44;;;;;;;25.25;5.83;;;;;;;30.15;29.86;98822.63;1640727;86;21010;-68
2022/08/27 10:58:46;;;;;;;30.57;6.00;;;;;;;29.98;30.17;98831.55;1662770;86;20994;-68
2022/08/27 11:01:27;;;;;;;27.10;6.00;;;;;;;29.90;29.89;98825.02;1662733;86;21002;-68
2022/08/27 11:04:24;;;;;;;28.85;5.90;;;;;;;29.90;30.72;98827.70;1663106;85;21456;-67
2022/08/27 11:07:02;;;;;;;32.30;5.85;;;;;;;29.94;30.16;98830.30;1662377;86;20982;-67
2022/08/27 11:09:40;;;;;;;31.40;6.67;;;;;;;29.85;30.06;98829.33;1662743;85;21009;-68
2022/08/27 11:12:08;;;;;;;23.90;5.62;;;;;;;29.74;30.93;98836.95;1662720;86;21073;-68
2022/08/27 11:14:59;;;;;;;38.50;6.62;;;;;;;29.68;30.34;98831.55;1662628;86;21080;-68
2022/08/27 11:17:49;;;;;;;26.65;6.10;;;;;;;29.62;31.18;98827.81;1662671;86;21170;-68
2022/08/27 11:20:20;;;;;;;27.50;5.95;;;;;;;29.66;31.18;98828.25;1662606;86;21116;-68
2022/08/27 11:22:52;;;;;;;29.48;5.90;;;;;;;29.74;31.25;98820.04;1640251;86;21081;-68
2022/08/27 11:25:30;;;;;;;25.00;5.70;;;;;;;29.82;31.07;98822.00;1662871;86;21078;-68
2022/08/27 11:27:57;;;;;;;24.02;5.58;;;;;;;29.83;31.29;98819.63;1662785;86;21514;-68
2022/08/27 11:30:38;;;;;;;23.60;5.95;;;;;;;29.87;31.04;98812.53;1662638;85;21100;-68
2022/08/27 11:33:36;;;;;;;29.95;5.72;;;;;;;29.93;30.60;98811.22;1662601;85;21073;-68
2022/08/27 11:36:34;;;;;;;33.28;5.45;;;;;;;29.97;30.61;98810.30;1662842;86;21483;-68
2022/08/27 11:39:06;;;;;;;35.03;5.62;;;;;;;30.04;31.05;98809.29;1662849;85;21479;-68
2022/08/27 11:41:51;;;;;;;25.48;5.00;;;;;;;30.15;30.38;98808.70;1662199;86;20974;-68
2022/08/27 11:44:21;;;;;;;29.48;5.55;;;;;;;30.22;30.42;98811.88;1662626;85;21771;-68
2022/08/27 11:46:52;;;;;;;21.87;4.78;;;;;;;30.25;29.75;98808.80;1641469;86;21066;-68
2022/08/27 11:49:29;;;;;;;18.12;5.05;;;;;;;30.26;30.28;98800.55;1662107;86;21017;-69
2022/08/27 11:52:00;;;;;;;28.87;5.33;;;;;;;30.28;29.99;98803.02;1662094;86;21120;-69
2022/08/27 11:54:31;;;;;;;24.05;4.95;;;;;;;30.34;29.60;98801.70;1662969;85;21025;-68
2022/08/27 11:56:59;;;;;;;21.85;5.30;;;;;;;30.48;29.12;98801.17;1662837;86;21842;-69
2022/08/27 11:59:31;;;;;;;21.62;5.15;;;;;;;30.61;28.30;98797.66;1662579;85;21065;-69